sensor_id;sensor_type;location;lat;lon;timestamp;P1;durP1;ratioP1;P2;durP2;ratioP2
59366;SDS011;45163;47.690;11.770;2022-10-31T00:02:24;5.40;;;2.43;;
59366;SDS011;45163;47.690;11.770;2022-10-31T00:04:50;7.87;;;2.20;;
59366;SDS011;45163;47.690;11.770;2022-10-31T00:07:16;8.73;;;2.70;;
59366;SDS011;45163;47.690;11.770;2022-10-31T00:09:42;7.00;;;2.00;;
59366;SDS011;45163;47.690;11.770;2022-10-31T00:12:08;5.77;;;2.30;;
59366;SDS011;45163;47.690;11.770;2022-10-31T00:14:34;3.20;;;2.00;;
59366;SDS011;45163;47.690;11.770;2022-10-31T00:17:00;7.00;;;2.60;;
59366;SDS011;45163;47.690;11.770;2022-10-31T00:19:26;4.40;;;2.33;;
59366;SDS011;45163;47.690;11.770;2022-10-31T00:21:52;7.00;;;2.43;;
59366;SDS011;45163;47.690;11.770;2022-10-31T00:24:17;9.57;;;2.63;;
59366;SDS011;45163;47.690;11.770;2022-10-31T00:26:44;8.30;;;2.23;;
59366;SDS011;45163;47.690;11.770;2022-10-31T00:29:10;5.07;;;2.47;;
59366;SDS011;45163;47.690;11.770;2022-10-31T00:31:36;14.27;;;2.90;;
59366;SDS011;45163;47.690;11.770;2022-10-31T00:34:02;11.17;;;2.90;;
59366;SDS011;45163;47.690;11.770;2022-10-31T00:36:28;8.70;;;3.23;;
59366;SDS011;45163;47.690;11.770;2022-10-31T00:38:54;6.60;;;3.00;;
59366;SDS011;45163;47.690;11.770;2022-10-31T00:41:20;4.90;;;2.33;;
59366;SDS011;45163;47.690;11.770;2022-10-31T00:43:46;6.50;;;2.80;;
59366;SDS011;45163;47.690;11.770;2022-10-31T00:46:12;8.80;;;2.53;;
59366;SDS011;45163;47.690;11.770;2022-10-31T00:48:39;6.50;;;2.47;;
59366;SDS011;45163;47.690;11.770;2022-10-31T00:51:05;8.23;;;2.73;;
59366;SDS011;45163;47.690;11.770;2022-10-31T00:53:31;7.53;;;2.60;;
59366;SDS011;45163;47.690;11.770;2022-10-31T00:55:57;6.43;;;2.43;;
59366;SDS011;45163;47.690;11.770;2022-10-31T00:58:23;5.77;;;2.20;;
59366;SDS011;45163;47.690;11.770;2022-10-31T01:00:49;7.67;;;2.30;;
59366;SDS011;45163;47.690;11.770;2022-10-31T01:03:25;7.27;;;2.60;;
59366;SDS011;45163;47.690;11.770;2022-10-31T01:05:59;9.20;;;2.43;;
59366;SDS011;45163;47.690;11.770;2022-10-31T01:08:28;3.93;;;2.20;;
59366;SDS011;45163;47.690;11.770;2022-10-31T01:11:02;6.67;;;2.20;;
59366;SDS011;45163;47.690;11.770;2022-10-31T01:13:52;5.67;;;2.50;;
59366;SDS011;45163;47.690;11.770;2022-10-31T01:16:20;7.27;;;2.70;;
59366;SDS011;45163;47.690;11.770;2022-10-31T01:18:47;8.60;;;2.33;;
59366;SDS011;45163;47.690;11.770;2022-10-31T01:21:14;4.10;;;2.47;;
59366;SDS011;45163;47.690;11.770;2022-10-31T01:23:42;7.00;;;2.30;;
59366;SDS011;45163;47.690;11.770;2022-10-31T01:28:36;5.27;;;2.50;;
59366;SDS011;45163;47.690;11.770;2022-10-31T01:31:06;4.00;;;2.07;;
59366;SDS011;45163;47.690;11.770;2022-10-31T01:33:33;6.20;;;2.20;;
59366;SDS011;45163;47.690;11.770;2022-10-31T01:36:00;8.00;;;2.60;;
59366;SDS011;45163;47.690;11.770;2022-10-31T01:38:26;9.53;;;2.60;;
59366;SDS011;45163;47.690;11.770;2022-10-31T01:40:53;15.37;;;2.90;;
59366;SDS011;45163;47.690;11.770;2022-10-31T01:43:19;7.20;;;2.30;;
59366;SDS011;45163;47.690;11.770;2022-10-31T01:45:46;9.37;;;3.13;;
59366;SDS011;45163;47.690;11.770;2022-10-31T01:48:18;6.70;;;2.40;;
59366;SDS011;45163;47.690;11.770;2022-10-31T01:50:48;3.37;;;2.20;;
59366;SDS011;45163;47.690;11.770;2022-10-31T01:53:17;7.33;;;2.80;;
59366;SDS011;45163;47.690;11.770;2022-10-31T01:55:44;4.87;;;2.23;;
59366;SDS011;45163;47.690;11.770;2022-10-31T01:58:15;8.23;;;2.93;;
59366;SDS011;45163;47.690;11.770;2022-10-31T02:00:46;14.27;;;2.80;;
59366;SDS011;45163;47.690;11.770;2022-10-31T02:03:17;5.73;;;2.47;;
59366;SDS011;45163;47.690;11.770;2022-10-31T02:05:45;6.80;;;2.27;;
59366;SDS011;45163;47.690;11.770;2022-10-31T02:08:23;8.50;;;2.30;;
59366;SDS011;45163;47.690;11.770;2022-10-31T02:10:59;9.33;;;2.30;;
59366;SDS011;45163;47.690;11.770;2022-10-31T02:13:27;5.83;;;2.20;;
59366;SDS011;45163;47.690;11.770;2022-10-31T02:15:55;6.07;;;2.43;;
59366;SDS011;45163;47.690;11.770;2022-10-31T02:18:24;6.23;;;2.20;;
59366;SDS011;45163;47.690;11.770;2022-10-31T02:23:55;7.83;;;2.17;;
59366;SDS011;45163;47.690;11.770;2022-10-31T02:37:21;7.90;;;2.67;;
59366;SDS011;45163;47.690;11.770;2022-10-31T02:43:06;6.47;;;2.40;;
59366;SDS011;45163;47.690;11.770;2022-10-31T02:45:41;5.27;;;2.30;;
59366;SDS011;45163;47.690;11.770;2022-10-31T02:48:18;5.30;;;2.10;;
59366;SDS011;45163;47.690;11.770;2022-10-31T02:50:52;5.67;;;2.47;;
59366;SDS011;45163;47.690;11.770;2022-10-31T02:53:22;6.97;;;2.43;;
59366;SDS011;45163;47.690;11.770;2022-10-31T02:55:50;11.23;;;2.47;;
59366;SDS011;45163;47.690;11.770;2022-10-31T02:58:22;5.73;;;2.53;;
59366;SDS011;45163;47.690;11.770;2022-10-31T03:06:34;9.17;;;2.33;;
59366;SDS011;45163;47.690;11.770;2022-10-31T03:09:12;8.93;;;2.23;;
59366;SDS011;45163;47.690;11.770;2022-10-31T03:11:45;8.90;;;2.57;;
59366;SDS011;45163;47.690;11.770;2022-10-31T03:14:23;9.43;;;2.57;;
59366;SDS011;45163;47.690;11.770;2022-10-31T03:16:54;3.97;;;1.90;;
59366;SDS011;45163;47.690;11.770;2022-10-31T03:19:45;4.40;;;2.63;;
59366;SDS011;45163;47.690;11.770;2022-10-31T03:22:17;13.63;;;2.17;;
59366;SDS011;45163;47.690;11.770;2022-10-31T03:24:46;5.70;;;2.20;;
59366;SDS011;45163;47.690;11.770;2022-10-31T03:27:15;3.10;;;1.83;;
59366;SDS011;45163;47.690;11.770;2022-10-31T03:29:45;4.77;;;2.20;;
59366;SDS011;45163;47.690;11.770;2022-10-31T03:32:34;8.40;;;2.30;;
59366;SDS011;45163;47.690;11.770;2022-10-31T03:35:04;7.97;;;2.10;;
59366;SDS011;45163;47.690;11.770;2022-10-31T03:37:33;7.40;;;2.43;;
59366;SDS011;45163;47.690;11.770;2022-10-31T03:40:01;3.70;;;2.23;;
59366;SDS011;45163;47.690;11.770;2022-10-31T03:42:31;5.87;;;2.43;;
59366;SDS011;45163;47.690;11.770;2022-10-31T03:45:03;5.63;;;2.00;;
59366;SDS011;45163;47.690;11.770;2022-10-31T03:47:32;6.10;;;2.20;;
59366;SDS011;45163;47.690;11.770;2022-10-31T03:50:01;7.63;;;2.30;;
59366;SDS011;45163;47.690;11.770;2022-10-31T03:52:28;6.03;;;2.83;;
59366;SDS011;45163;47.690;11.770;2022-10-31T03:55:10;7.50;;;2.27;;
59366;SDS011;45163;47.690;11.770;2022-10-31T04:00:12;6.83;;;2.07;;
59366;SDS011;45163;47.690;11.770;2022-10-31T04:02:45;4.97;;;2.23;;
59366;SDS011;45163;47.690;11.770;2022-10-31T04:05:16;5.33;;;2.30;;
59366;SDS011;45163;47.690;11.770;2022-10-31T04:07:44;4.83;;;1.90;;
59366;SDS011;45163;47.690;11.770;2022-10-31T04:10:16;6.10;;;2.17;;
59366;SDS011;45163;47.690;11.770;2022-10-31T04:12:45;6.33;;;2.40;;
59366;SDS011;45163;47.690;11.770;2022-10-31T04:15:17;8.80;;;2.20;;
59366;SDS011;45163;47.690;11.770;2022-10-31T04:17:45;11.50;;;2.60;;
59366;SDS011;45163;47.690;11.770;2022-10-31T04:20:16;8.07;;;2.80;;
59366;SDS011;45163;47.690;11.770;2022-10-31T04:22:42;6.23;;;2.50;;
59366;SDS011;45163;47.690;11.770;2022-10-31T04:25:09;8.07;;;2.70;;
59366;SDS011;45163;47.690;11.770;2022-10-31T04:27:34;7.20;;;2.87;;
59366;SDS011;45163;47.690;11.770;2022-10-31T04:30:00;5.70;;;2.93;;
59366;SDS011;45163;47.690;11.770;2022-10-31T04:32:26;8.10;;;2.40;;
59366;SDS011;45163;47.690;11.770;2022-10-31T04:34:52;6.87;;;2.30;;
59366;SDS011;45163;47.690;11.770;2022-10-31T04:37:18;4.53;;;2.40;;
59366;SDS011;45163;47.690;11.770;2022-10-31T04:39:44;8.43;;;2.00;;
59366;SDS011;45163;47.690;11.770;2022-10-31T04:42:10;3.40;;;2.00;;
59366;SDS011;45163;47.690;11.770;2022-10-31T04:44:36;5.83;;;2.23;;
59366;SDS011;45163;47.690;11.770;2022-10-31T04:47:02;4.43;;;2.60;;
59366;SDS011;45163;47.690;11.770;2022-10-31T04:49:28;3.00;;;1.90;;
59366;SDS011;45163;47.690;11.770;2022-10-31T04:51:54;6.13;;;2.47;;
59366;SDS011;45163;47.690;11.770;2022-10-31T04:54:20;9.70;;;2.53;;
59366;SDS011;45163;47.690;11.770;2022-10-31T04:56:46;5.93;;;2.03;;
59366;SDS011;45163;47.690;11.770;2022-10-31T04:59:12;8.30;;;2.63;;
59366;SDS011;45163;47.690;11.770;2022-10-31T05:01:37;8.37;;;3.50;;
59366;SDS011;45163;47.690;11.770;2022-10-31T05:04:03;9.17;;;3.30;;
59366;SDS011;45163;47.690;11.770;2022-10-31T05:06:29;13.80;;;4.00;;
59366;SDS011;45163;47.690;11.770;2022-10-31T05:08:55;8.07;;;3.10;;
59366;SDS011;45163;47.690;11.770;2022-10-31T05:11:21;11.17;;;3.50;;
59366;SDS011;45163;47.690;11.770;2022-10-31T05:13:47;7.83;;;3.87;;
59366;SDS011;45163;47.690;11.770;2022-10-31T05:16:13;9.90;;;3.73;;
59366;SDS011;45163;47.690;11.770;2022-10-31T05:18:39;9.97;;;3.43;;
59366;SDS011;45163;47.690;11.770;2022-10-31T05:21:05;7.97;;;2.50;;
59366;SDS011;45163;47.690;11.770;2022-10-31T05:23:31;5.43;;;2.60;;
59366;SDS011;45163;47.690;11.770;2022-10-31T05:25:57;7.80;;;2.40;;
59366;SDS011;45163;47.690;11.770;2022-10-31T05:28:23;15.50;;;2.67;;
59366;SDS011;45163;47.690;11.770;2022-10-31T05:30:49;6.93;;;2.40;;
59366;SDS011;45163;47.690;11.770;2022-10-31T05:33:15;6.97;;;2.70;;
59366;SDS011;45163;47.690;11.770;2022-10-31T05:35:41;9.20;;;2.30;;
59366;SDS011;45163;47.690;11.770;2022-10-31T05:38:07;11.73;;;2.40;;
59366;SDS011;45163;47.690;11.770;2022-10-31T05:40:33;6.93;;;2.30;;
59366;SDS011;45163;47.690;11.770;2022-10-31T05:42:59;10.17;;;2.37;;
59366;SDS011;45163;47.690;11.770;2022-10-31T05:45:25;4.93;;;2.07;;
59366;SDS011;45163;47.690;11.770;2022-10-31T05:47:52;7.30;;;2.30;;
59366;SDS011;45163;47.690;11.770;2022-10-31T05:50:22;9.07;;;2.60;;
59366;SDS011;45163;47.690;11.770;2022-10-31T05:52:55;5.50;;;2.80;;
59366;SDS011;45163;47.690;11.770;2022-10-31T05:55:25;7.73;;;2.57;;
59366;SDS011;45163;47.690;11.770;2022-10-31T05:57:52;9.23;;;2.50;;
59366;SDS011;45163;47.690;11.770;2022-10-31T06:00:19;5.53;;;2.37;;
59366;SDS011;45163;47.690;11.770;2022-10-31T06:02:46;12.13;;;2.83;;
59366;SDS011;45163;47.690;11.770;2022-10-31T06:05:12;8.07;;;2.80;;
59366;SDS011;45163;47.690;11.770;2022-10-31T06:07:38;6.40;;;2.23;;
59366;SDS011;45163;47.690;11.770;2022-10-31T06:10:05;2.80;;;2.03;;
59366;SDS011;45163;47.690;11.770;2022-10-31T06:12:33;6.63;;;2.60;;
59366;SDS011;45163;47.690;11.770;2022-10-31T06:15:04;5.07;;;2.80;;
59366;SDS011;45163;47.690;11.770;2022-10-31T06:17:31;10.70;;;3.00;;
59366;SDS011;45163;47.690;11.770;2022-10-31T06:19:58;8.10;;;2.90;;
59366;SDS011;45163;47.690;11.770;2022-10-31T06:22:24;8.67;;;2.67;;
59366;SDS011;45163;47.690;11.770;2022-10-31T06:24:50;7.47;;;2.73;;
59366;SDS011;45163;47.690;11.770;2022-10-31T06:27:16;7.23;;;2.43;;
59366;SDS011;45163;47.690;11.770;2022-10-31T06:29:42;6.33;;;2.33;;
59366;SDS011;45163;47.690;11.770;2022-10-31T06:32:09;8.93;;;2.90;;
59366;SDS011;45163;47.690;11.770;2022-10-31T06:34:36;10.37;;;3.37;;
59366;SDS011;45163;47.690;11.770;2022-10-31T06:37:02;10.73;;;3.43;;
59366;SDS011;45163;47.690;11.770;2022-10-31T06:39:28;10.03;;;2.90;;
59366;SDS011;45163;47.690;11.770;2022-10-31T06:41:54;15.13;;;3.33;;
59366;SDS011;45163;47.690;11.770;2022-10-31T06:44:20;5.83;;;3.03;;
59366;SDS011;45163;47.690;11.770;2022-10-31T06:46:46;9.57;;;3.10;;
59366;SDS011;45163;47.690;11.770;2022-10-31T06:49:13;8.33;;;2.60;;
59366;SDS011;45163;47.690;11.770;2022-10-31T06:51:40;11.20;;;3.10;;
59366;SDS011;45163;47.690;11.770;2022-10-31T06:54:06;9.40;;;3.47;;
59366;SDS011;45163;47.690;11.770;2022-10-31T06:56:32;8.00;;;2.80;;
59366;SDS011;45163;47.690;11.770;2022-10-31T06:58:57;7.40;;;3.10;;
59366;SDS011;45163;47.690;11.770;2022-10-31T07:01:23;12.73;;;4.03;;
59366;SDS011;45163;47.690;11.770;2022-10-31T07:03:49;9.43;;;3.17;;
59366;SDS011;45163;47.690;11.770;2022-10-31T07:06:15;9.47;;;4.17;;
59366;SDS011;45163;47.690;11.770;2022-10-31T07:08:41;14.73;;;4.20;;
59366;SDS011;45163;47.690;11.770;2022-10-31T07:11:07;7.43;;;2.70;;
59366;SDS011;45163;47.690;11.770;2022-10-31T07:13:33;9.47;;;2.20;;
59366;SDS011;45163;47.690;11.770;2022-10-31T07:16:00;9.83;;;2.47;;
59366;SDS011;45163;47.690;11.770;2022-10-31T07:18:27;15.17;;;3.70;;
59366;SDS011;45163;47.690;11.770;2022-10-31T07:20:54;10.80;;;2.93;;
59366;SDS011;45163;47.690;11.770;2022-10-31T07:23:20;5.07;;;2.80;;
59366;SDS011;45163;47.690;11.770;2022-10-31T07:25:46;11.70;;;4.10;;
59366;SDS011;45163;47.690;11.770;2022-10-31T07:28:12;14.27;;;3.20;;
59366;SDS011;45163;47.690;11.770;2022-10-31T07:30:38;8.83;;;3.33;;
59366;SDS011;45163;47.690;11.770;2022-10-31T07:33:05;13.67;;;3.20;;
59366;SDS011;45163;47.690;11.770;2022-10-31T07:35:31;13.77;;;4.27;;
59366;SDS011;45163;47.690;11.770;2022-10-31T07:38:05;10.97;;;3.50;;
59366;SDS011;45163;47.690;11.770;2022-10-31T07:40:33;10.80;;;2.97;;
59366;SDS011;45163;47.690;11.770;2022-10-31T07:42:58;8.87;;;3.40;;
59366;SDS011;45163;47.690;11.770;2022-10-31T07:45:24;10.87;;;3.63;;
59366;SDS011;45163;47.690;11.770;2022-10-31T07:47:51;12.63;;;3.53;;
59366;SDS011;45163;47.690;11.770;2022-10-31T07:50:19;7.43;;;2.93;;
59366;SDS011;45163;47.690;11.770;2022-10-31T07:52:47;5.73;;;2.83;;
59366;SDS011;45163;47.690;11.770;2022-10-31T07:55:13;9.97;;;3.70;;
59366;SDS011;45163;47.690;11.770;2022-10-31T07:57:40;7.67;;;3.13;;
59366;SDS011;45163;47.690;11.770;2022-10-31T08:00:07;11.07;;;2.93;;
59366;SDS011;45163;47.690;11.770;2022-10-31T08:02:35;7.17;;;2.60;;
59366;SDS011;45163;47.690;11.770;2022-10-31T08:05:01;9.30;;;3.03;;
59366;SDS011;45163;47.690;11.770;2022-10-31T08:07:27;6.30;;;2.20;;
59366;SDS011;45163;47.690;11.770;2022-10-31T08:09:54;7.57;;;2.30;;
59366;SDS011;45163;47.690;11.770;2022-10-31T08:12:21;4.17;;;2.07;;
59366;SDS011;45163;47.690;11.770;2022-10-31T08:14:47;4.93;;;2.03;;
59366;SDS011;45163;47.690;11.770;2022-10-31T08:17:13;5.00;;;2.20;;
59366;SDS011;45163;47.690;11.770;2022-10-31T08:19:39;6.00;;;2.47;;
59366;SDS011;45163;47.690;11.770;2022-10-31T08:22:05;6.30;;;2.40;;
59366;SDS011;45163;47.690;11.770;2022-10-31T08:24:31;10.13;;;2.50;;
59366;SDS011;45163;47.690;11.770;2022-10-31T08:26:57;5.60;;;2.30;;
59366;SDS011;45163;47.690;11.770;2022-10-31T08:29:23;5.20;;;2.17;;
59366;SDS011;45163;47.690;11.770;2022-10-31T08:31:48;8.13;;;2.50;;
59366;SDS011;45163;47.690;11.770;2022-10-31T08:34:14;5.87;;;2.33;;
59366;SDS011;45163;47.690;11.770;2022-10-31T08:36:40;7.83;;;2.70;;
59366;SDS011;45163;47.690;11.770;2022-10-31T08:39:08;7.70;;;2.37;;
59366;SDS011;45163;47.690;11.770;2022-10-31T08:41:34;8.80;;;2.77;;
59366;SDS011;45163;47.690;11.770;2022-10-31T08:44:00;8.23;;;2.80;;
59366;SDS011;45163;47.690;11.770;2022-10-31T08:46:26;6.97;;;2.77;;
59366;SDS011;45163;47.690;11.770;2022-10-31T08:48:52;7.03;;;2.37;;
59366;SDS011;45163;47.690;11.770;2022-10-31T08:51:18;10.33;;;2.20;;
59366;SDS011;45163;47.690;11.770;2022-10-31T08:53:44;8.67;;;2.70;;
59366;SDS011;45163;47.690;11.770;2022-10-31T08:56:10;12.07;;;2.53;;
59366;SDS011;45163;47.690;11.770;2022-10-31T08:58:36;3.60;;;2.00;;
59366;SDS011;45163;47.690;11.770;2022-10-31T09:01:02;8.97;;;2.80;;
59366;SDS011;45163;47.690;11.770;2022-10-31T09:03:29;7.10;;;2.20;;
59366;SDS011;45163;47.690;11.770;2022-10-31T09:05:59;13.23;;;3.03;;
59366;SDS011;45163;47.690;11.770;2022-10-31T09:08:29;5.13;;;2.83;;
59366;SDS011;45163;47.690;11.770;2022-10-31T09:10:56;13.10;;;2.63;;
59366;SDS011;45163;47.690;11.770;2022-10-31T09:13:23;5.60;;;2.23;;
59366;SDS011;45163;47.690;11.770;2022-10-31T09:15:49;8.67;;;2.37;;
59366;SDS011;45163;47.690;11.770;2022-10-31T09:18:17;4.77;;;2.43;;
59366;SDS011;45163;47.690;11.770;2022-10-31T09:20:45;6.03;;;2.22;;
59366;SDS011;45163;47.690;11.770;2022-10-31T09:23:13;8.50;;;2.40;;
59366;SDS011;45163;47.690;11.770;2022-10-31T09:25:44;9.95;;;2.50;;
59366;SDS011;45163;47.690;11.770;2022-10-31T09:28:13;12.23;;;2.92;;
59366;SDS011;45163;47.690;11.770;2022-10-31T09:30:41;7.20;;;2.45;;
59366;SDS011;45163;47.690;11.770;2022-10-31T09:33:11;10.70;;;2.45;;
59366;SDS011;45163;47.690;11.770;2022-10-31T09:35:38;8.32;;;3.20;;
59366;SDS011;45163;47.690;11.770;2022-10-31T09:38:06;8.32;;;2.60;;
59366;SDS011;45163;47.690;11.770;2022-10-31T09:51:05;7.88;;;2.90;;
59366;SDS011;45163;47.690;11.770;2022-10-31T09:56:19;7.60;;;2.67;;
59366;SDS011;45163;47.690;11.770;2022-10-31T09:58:49;5.75;;;2.50;;
59366;SDS011;45163;47.690;11.770;2022-10-31T10:01:39;6.35;;;2.67;;
59366;SDS011;45163;47.690;11.770;2022-10-31T10:06:58;9.05;;;2.33;;
59366;SDS011;45163;47.690;11.770;2022-10-31T10:09:27;9.55;;;2.83;;
59366;SDS011;45163;47.690;11.770;2022-10-31T10:11:59;7.90;;;2.60;;
59366;SDS011;45163;47.690;11.770;2022-10-31T10:14:41;5.85;;;2.15;;
59366;SDS011;45163;47.690;11.770;2022-10-31T10:19:58;7.72;;;2.47;;
59366;SDS011;45163;47.690;11.770;2022-10-31T10:27:56;10.30;;;2.58;;
59366;SDS011;45163;47.690;11.770;2022-10-31T10:34:06;9.25;;;2.97;;
59366;SDS011;45163;47.690;11.770;2022-10-31T10:36:43;8.02;;;2.67;;
59366;SDS011;45163;47.690;11.770;2022-10-31T10:42:04;6.85;;;2.97;;
59366;SDS011;45163;47.690;11.770;2022-10-31T10:44:55;6.82;;;3.22;;
59366;SDS011;45163;47.690;11.770;2022-10-31T10:47:44;9.02;;;3.03;;
59366;SDS011;45163;47.690;11.770;2022-10-31T10:55:43;9.10;;;3.10;;
59366;SDS011;45163;47.690;11.770;2022-10-31T10:58:20;7.97;;;2.77;;
59366;SDS011;45163;47.690;11.770;2022-10-31T11:00:46;6.73;;;2.60;;
59366;SDS011;45163;47.690;11.770;2022-10-31T11:03:13;8.10;;;2.40;;
59366;SDS011;45163;47.690;11.770;2022-10-31T11:05:48;8.07;;;2.40;;
59366;SDS011;45163;47.690;11.770;2022-10-31T11:08:23;6.13;;;2.40;;
59366;SDS011;45163;47.690;11.770;2022-10-31T11:11:00;9.43;;;2.83;;
59366;SDS011;45163;47.690;11.770;2022-10-31T11:13:27;9.73;;;2.67;;
59366;SDS011;45163;47.690;11.770;2022-10-31T11:18:32;6.20;;;2.60;;
59366;SDS011;45163;47.690;11.770;2022-10-31T11:21:19;11.23;;;4.70;;
59366;SDS011;45163;47.690;11.770;2022-10-31T11:23:47;9.40;;;2.93;;
59366;SDS011;45163;47.690;11.770;2022-10-31T11:26:19;10.73;;;2.83;;
59366;SDS011;45163;47.690;11.770;2022-10-31T11:28:55;14.17;;;3.50;;
59366;SDS011;45163;47.690;11.770;2022-10-31T11:31:23;7.33;;;3.33;;
59366;SDS011;45163;47.690;11.770;2022-10-31T11:33:51;12.37;;;3.90;;
59366;SDS011;45163;47.690;11.770;2022-10-31T11:36:29;11.90;;;3.50;;
59366;SDS011;45163;47.690;11.770;2022-10-31T11:38:57;9.50;;;3.00;;
59366;SDS011;45163;47.690;11.770;2022-10-31T11:43:54;9.60;;;2.33;;
59366;SDS011;45163;47.690;11.770;2022-10-31T11:46:34;6.97;;;2.97;;
59366;SDS011;45163;47.690;11.770;2022-10-31T11:49:04;6.70;;;2.80;;
59366;SDS011;45163;47.690;11.770;2022-10-31T11:51:36;5.15;;;2.67;;
59366;SDS011;45163;47.690;11.770;2022-10-31T11:54:03;12.50;;;3.30;;
59366;SDS011;45163;47.690;11.770;2022-10-31T11:56:40;8.45;;;2.72;;
59366;SDS011;45163;47.690;11.770;2022-10-31T11:59:50;8.55;;;2.70;;
59366;SDS011;45163;47.690;11.770;2022-10-31T12:02:00;8.90;;;2.90;;
59366;SDS011;45163;47.690;11.770;2022-10-31T12:04:50;7.30;;;3.00;;
59366;SDS011;45163;47.690;11.770;2022-10-31T12:07:26;11.55;;;2.50;;
59366;SDS011;45163;47.690;11.770;2022-10-31T12:09:52;11.68;;;3.17;;
59366;SDS011;45163;47.690;11.770;2022-10-31T12:23:20;13.85;;;3.00;;
59366;SDS011;45163;47.690;11.770;2022-10-31T12:50:47;12.00;;;3.22;;
59366;SDS011;45163;47.690;11.770;2022-10-31T12:58:53;9.82;;;3.00;;
59366;SDS011;45163;47.690;11.770;2022-10-31T13:01:28;8.90;;;3.10;;
59366;SDS011;45163;47.690;11.770;2022-10-31T13:04:14;10.38;;;2.70;;
59366;SDS011;45163;47.690;11.770;2022-10-31T13:06:54;13.30;;;2.83;;
59366;SDS011;45163;47.690;11.770;2022-10-31T13:09:27;9.47;;;3.00;;
59366;SDS011;45163;47.690;11.770;2022-10-31T13:12:02;10.98;;;2.85;;
59366;SDS011;45163;47.690;11.770;2022-10-31T13:14:47;11.10;;;3.30;;
59366;SDS011;45163;47.690;11.770;2022-10-31T13:17:25;16.88;;;3.08;;
59366;SDS011;45163;47.690;11.770;2022-10-31T13:20:05;12.52;;;3.30;;
59366;SDS011;45163;47.690;11.770;2022-10-31T13:22:42;10.88;;;3.00;;
59366;SDS011;45163;47.690;11.770;2022-10-31T13:25:19;8.70;;;2.80;;
59366;SDS011;45163;47.690;11.770;2022-10-31T13:28:03;6.82;;;2.67;;
59366;SDS011;45163;47.690;11.770;2022-10-31T13:30:45;9.10;;;2.90;;
59366;SDS011;45163;47.690;11.770;2022-10-31T13:33:18;8.45;;;3.28;;
59366;SDS011;45163;47.690;11.770;2022-10-31T13:44:22;10.73;;;3.30;;
59366;SDS011;45163;47.690;11.770;2022-10-31T13:46:49;9.68;;;3.08;;
59366;SDS011;45163;47.690;11.770;2022-10-31T13:49:50;9.48;;;3.30;;
59366;SDS011;45163;47.690;11.770;2022-10-31T13:54:36;9.48;;;2.97;;
59366;SDS011;45163;47.690;11.770;2022-10-31T14:02:36;10.75;;;3.20;;
59366;SDS011;45163;47.690;11.770;2022-10-31T14:07:47;8.05;;;3.08;;
59366;SDS011;45163;47.690;11.770;2022-10-31T14:10:22;9.30;;;3.30;;
59366;SDS011;45163;47.690;11.770;2022-10-31T14:13:03;12.13;;;3.05;;
59366;SDS011;45163;47.690;11.770;2022-10-31T14:15:29;8.43;;;3.22;;
59366;SDS011;45163;47.690;11.770;2022-10-31T14:18:05;8.75;;;3.05;;
59366;SDS011;45163;47.690;11.770;2022-10-31T14:20:43;5.32;;;2.70;;
59366;SDS011;45163;47.690;11.770;2022-10-31T14:25:54;8.25;;;2.85;;
59366;SDS011;45163;47.690;11.770;2022-10-31T14:28:32;7.10;;;3.10;;
59366;SDS011;45163;47.690;11.770;2022-10-31T14:30:59;7.97;;;3.17;;
59366;SDS011;45163;47.690;11.770;2022-10-31T14:33:27;10.65;;;3.42;;
59366;SDS011;45163;47.690;11.770;2022-10-31T14:52:24;8.43;;;3.13;;
59366;SDS011;45163;47.690;11.770;2022-10-31T14:54:51;9.90;;;3.30;;
59366;SDS011;45163;47.690;11.770;2022-10-31T14:59:49;7.63;;;2.83;;
59366;SDS011;45163;47.690;11.770;2022-10-31T15:02:27;10.53;;;3.30;;
59366;SDS011;45163;47.690;11.770;2022-10-31T15:05:00;5.63;;;2.50;;
59366;SDS011;45163;47.690;11.770;2022-10-31T15:07:28;7.73;;;3.33;;
59366;SDS011;45163;47.690;11.770;2022-10-31T15:09:57;8.77;;;3.40;;
59366;SDS011;45163;47.690;11.770;2022-10-31T15:12:30;10.37;;;4.27;;
59366;SDS011;45163;47.690;11.770;2022-10-31T15:14:57;8.03;;;4.23;;
59366;SDS011;45163;47.690;11.770;2022-10-31T15:17:26;18.90;;;4.77;;
59366;SDS011;45163;47.690;11.770;2022-10-31T15:19:52;11.63;;;4.73;;
59366;SDS011;45163;47.690;11.770;2022-10-31T15:22:20;13.10;;;4.63;;
59366;SDS011;45163;47.690;11.770;2022-10-31T15:24:49;12.23;;;4.93;;
59366;SDS011;45163;47.690;11.770;2022-10-31T15:27:21;13.50;;;4.70;;
59366;SDS011;45163;47.690;11.770;2022-10-31T15:29:50;11.93;;;4.53;;
59366;SDS011;45163;47.690;11.770;2022-10-31T15:32:23;11.83;;;4.20;;
59366;SDS011;45163;47.690;11.770;2022-10-31T15:34:54;11.43;;;4.53;;
59366;SDS011;45163;47.690;11.770;2022-10-31T15:37:22;9.57;;;4.50;;
59366;SDS011;45163;47.690;11.770;2022-10-31T15:39:50;15.00;;;4.70;;
59366;SDS011;45163;47.690;11.770;2022-10-31T15:42:24;10.40;;;3.33;;
59366;SDS011;45163;47.690;11.770;2022-10-31T15:45:05;7.93;;;2.97;;
59366;SDS011;45163;47.690;11.770;2022-10-31T15:47:48;9.63;;;3.70;;
59366;SDS011;45163;47.690;11.770;2022-10-31T15:50:39;8.63;;;3.57;;
59366;SDS011;45163;47.690;11.770;2022-10-31T15:53:14;9.27;;;3.30;;
59366;SDS011;45163;47.690;11.770;2022-10-31T15:55:53;6.40;;;2.60;;
59366;SDS011;45163;47.690;11.770;2022-10-31T15:58:24;5.63;;;2.67;;
59366;SDS011;45163;47.690;11.770;2022-10-31T16:00:58;8.93;;;3.10;;
59366;SDS011;45163;47.690;11.770;2022-10-31T16:03:30;8.23;;;3.13;;
59366;SDS011;45163;47.690;11.770;2022-10-31T16:05:59;7.10;;;3.13;;
59366;SDS011;45163;47.690;11.770;2022-10-31T16:13:36;11.23;;;4.10;;
59366;SDS011;45163;47.690;11.770;2022-10-31T16:16:14;13.23;;;4.27;;
59366;SDS011;45163;47.690;11.770;2022-10-31T16:18:42;9.67;;;3.67;;
59366;SDS011;45163;47.690;11.770;2022-10-31T16:21:09;9.13;;;3.63;;
59366;SDS011;45163;47.690;11.770;2022-10-31T16:23:36;8.53;;;4.00;;
59366;SDS011;45163;47.690;11.770;2022-10-31T16:26:09;11.07;;;3.50;;
59366;SDS011;45163;47.690;11.770;2022-10-31T16:28:35;10.57;;;3.20;;
59366;SDS011;45163;47.690;11.770;2022-10-31T16:31:11;8.37;;;3.20;;
59366;SDS011;45163;47.690;11.770;2022-10-31T16:33:39;8.47;;;3.43;;
59366;SDS011;45163;47.690;11.770;2022-10-31T16:38:54;10.40;;;5.70;;
59366;SDS011;45163;47.690;11.770;2022-10-31T16:41:20;11.17;;;5.83;;
59366;SDS011;45163;47.690;11.770;2022-10-31T16:43:47;13.30;;;5.70;;
59366;SDS011;45163;47.690;11.770;2022-10-31T16:46:14;9.47;;;4.47;;
59366;SDS011;45163;47.690;11.770;2022-10-31T16:48:46;7.40;;;3.47;;
59366;SDS011;45163;47.690;11.770;2022-10-31T16:51:12;9.17;;;4.17;;
59366;SDS011;45163;47.690;11.770;2022-10-31T16:53:38;15.50;;;5.30;;
59366;SDS011;45163;47.690;11.770;2022-10-31T16:56:04;13.23;;;6.00;;
59366;SDS011;45163;47.690;11.770;2022-10-31T16:58:31;19.43;;;8.77;;
59366;SDS011;45163;47.690;11.770;2022-10-31T17:00:59;17.20;;;6.97;;
59366;SDS011;45163;47.690;11.770;2022-10-31T17:03:26;11.30;;;6.43;;
59366;SDS011;45163;47.690;11.770;2022-10-31T17:05:52;15.23;;;7.93;;
59366;SDS011;45163;47.690;11.770;2022-10-31T17:08:20;17.53;;;9.30;;
59366;SDS011;45163;47.690;11.770;2022-10-31T17:10:47;23.40;;;11.33;;
59366;SDS011;45163;47.690;11.770;2022-10-31T17:13:18;15.37;;;8.40;;
59366;SDS011;45163;47.690;11.770;2022-10-31T17:15:47;10.80;;;5.90;;
59366;SDS011;45163;47.690;11.770;2022-10-31T17:18:16;8.83;;;4.33;;
59366;SDS011;45163;47.690;11.770;2022-10-31T17:20:43;6.23;;;4.10;;
59366;SDS011;45163;47.690;11.770;2022-10-31T17:23:09;6.10;;;3.80;;
59366;SDS011;45163;47.690;11.770;2022-10-31T17:25:37;8.90;;;3.70;;